Time;durP1;ratioP1;P1;durP2;ratioP2;P2;SDS_P1;SDS_P2;PMS_P1;PMS_P2;Temp;Humidity;BMP_temperature;BMP_pressure;BME280_temperature;BME280_humidity;BME280_pressure;Samples;Min_cycle;Max_cycle;Signal;HPM_P1;HPM_P2
2021/04/28 00:02:12;;;;;;;10.43;4.77;;;13.80;99.90;;;;;;4990417;28;20193;-72
2021/04/28 00:04:39;;;;;;;12.07;4.67;;;13.80;99.90;;;;;;5007348;28;21141;-72
2021/04/28 00:07:05;;;;;;;10.63;4.57;;;13.70;99.90;;;;;;5007583;28;20208;-73
2021/04/28 00:09:33;;;;;;;12.33;4.67;;;13.60;99.90;;;;;;5005031;28;20203;-72
2021/04/28 00:12:02;;;;;;;15.03;4.87;;;13.60;99.90;;;;;;5023337;28;20224;-71
2021/04/28 00:14:29;;;;;;;13.93;5.23;;;13.60;99.90;;;;;;5007721;28;20825;-72
2021/04/28 00:16:57;;;;;;;11.50;5.10;;;13.50;99.90;;;;;;5004968;28;20609;-72
2021/04/28 00:19:23;;;;;;;19.87;4.83;;;13.40;99.90;;;;;;5007991;28;20235;-72
2021/04/28 00:21:50;;;;;;;12.40;5.03;;;13.40;99.90;;;;;;4993527;28;20835;-73
2021/04/28 00:24:16;;;;;;;15.47;5.00;;;13.40;99.90;;;;;;5005850;28;20666;-72
2021/04/28 00:26:43;;;;;;;12.63;4.80;;;13.40;99.90;;;;;;5006145;28;20194;-72
2021/04/28 00:29:09;;;;;;;9.47;4.40;;;13.40;99.90;;;;;;5008911;28;20185;-72
2021/04/28 00:31:35;;;;;;;12.93;5.23;;;13.70;99.90;;;;;;5006060;28;20203;-71
2021/04/28 00:34:02;;;;;;;13.47;4.83;;;13.50;99.90;;;;;;5003620;28;20213;-72
2021/04/28 00:36:30;;;;;;;11.97;4.60;;;13.40;99.90;;;;;;5003996;28;20196;-72
2021/04/28 00:38:56;;;;;;;9.17;4.87;;;13.40;99.90;;;;;;4988898;28;20193;-72
2021/04/28 00:41:22;;;;;;;9.10;4.60;;;13.40;99.90;;;;;;5018073;28;20263;-72
2021/04/28 00:43:49;;;;;;;12.80;4.83;;;13.40;99.90;;;;;;5003014;28;20192;-72
2021/04/28 00:46:16;;;;;;;18.77;5.20;;;13.30;99.90;;;;;;5019262;28;20193;-72
2021/04/28 00:48:42;;;;;;;14.87;4.80;;;13.20;99.90;;;;;;4999175;28;20173;-71
2021/04/28 00:51:09;;;;;;;16.27;5.10;;;13.30;99.90;;;;;;4990777;28;20272;-72
2021/04/28 00:53:35;;;;;;;13.43;4.83;;;13.30;99.90;;;;;;4991889;28;20181;-72
2021/04/28 00:56:03;;;;;;;11.57;4.67;;;13.40;99.90;;;;;;5001069;28;20181;-71
2021/04/28 00:58:29;;;;;;;11.37;4.20;;;13.30;99.90;;;;;;4984571;28;20189;-72
2021/04/28 01:00:56;;;;;;;11.77;4.30;;;13.20;99.90;;;;;;5007225;28;20263;-72
2021/04/28 01:03:28;;;;;;;13.07;5.13;;;13.20;99.90;;;;;;5002292;28;20193;-73
2021/04/28 01:05:59;;;;;;;10.27;4.37;;;13.30;99.90;;;;;;5020567;28;20232;-72
2021/04/28 01:08:26;;;;;;;10.43;4.63;;;13.10;99.90;;;;;;5004925;28;20177;-72
2021/04/28 01:10:54;;;;;;;8.73;4.20;;;13.20;99.90;;;;;;5005551;28;20346;-72
2021/04/28 01:13:22;;;;;;;14.03;4.80;;;13.20;99.90;;;;;;5019402;28;20187;-72
2021/04/28 01:15:50;;;;;;;16.43;4.20;;;13.20;99.90;;;;;;5018496;28;20841;-71
2021/04/28 01:18:19;;;;;;;11.73;4.43;;;13.40;99.90;;;;;;5001019;28;20189;-72
2021/04/28 01:20:47;;;;;;;17.50;4.03;;;13.60;99.90;;;;;;4992736;28;20537;-72
2021/04/28 01:23:16;;;;;;;11.73;4.20;;;13.80;99.90;;;;;;5004145;28;20185;-71
2021/04/28 01:25:43;;;;;;;13.33;4.13;;;14.00;99.90;;;;;;5006384;28;20196;-72
2021/04/28 01:28:23;;;;;;;16.73;4.23;;;14.20;99.90;;;;;;5008060;28;20204;-72
2021/04/28 01:31:06;;;;;;;11.37;4.80;;;14.20;99.90;;;;;;4988699;28;20191;-72
2021/04/28 01:33:43;;;;;;;11.33;4.30;;;14.00;99.90;;;;;;5002905;28;20213;-72
2021/04/28 01:36:33;;;;;;;15.07;3.90;;;14.10;99.90;;;;;;4985224;28;20220;-72
2021/04/28 01:39:06;;;;;;;12.47;3.90;;;13.80;99.90;;;;;;5005647;28;20197;-72
2021/04/28 01:41:39;;;;;;;14.60;3.93;;;13.80;99.90;;;;;;5018320;28;20185;-73
2021/04/28 01:44:08;;;;;;;14.80;4.17;;;13.70;99.90;;;;;;4987221;28;20201;-72
2021/04/28 01:46:36;;;;;;;12.30;3.73;;;13.50;99.90;;;;;;5001045;28;20193;-72
2021/04/28 01:49:05;;;;;;;14.30;4.23;;;13.50;99.90;;;;;;4986853;28;21205;-72
2021/04/28 01:51:34;;;;;;;20.97;4.73;;;13.50;99.90;;;;;;5016443;28;20619;-72
2021/04/28 01:54:07;;;;;;;17.00;3.97;;;13.50;99.90;;;;;;5001905;28;20523;-72
2021/04/28 01:56:36;;;;;;;11.83;4.13;;;13.50;99.90;;;;;;5002899;28;20254;-72
2021/04/28 01:59:04;;;;;;;12.03;4.03;;;13.50;99.90;;;;;;5007401;28;20717;-71
2021/04/28 02:01:32;;;;;;;10.27;3.97;;;13.60;99.90;;;;;;5005963;28;20232;-71
2021/04/28 02:03:58;;;;;;;12.13;4.00;;;13.60;99.90;;;;;;4999422;28;20224;-72
2021/04/28 02:06:26;;;;;;;14.20;3.47;;;13.60;99.90;;;;;;5021958;28;20280;-72
2021/04/28 02:08:52;;;;;;;14.60;3.90;;;13.60;99.90;;;;;;5007080;28;20188;-71
2021/04/28 02:11:19;;;;;;;12.80;3.90;;;13.50;99.90;;;;;;4997861;28;20180;-71
2021/04/28 02:13:49;;;;;;;18.03;4.40;;;13.50;99.90;;;;;;5003501;28;20973;-73
2021/04/28 02:16:15;;;;;;;35.63;4.87;;;13.40;99.90;;;;;;5010112;28;20227;-73
2021/04/28 02:18:43;;;;;;;13.97;3.97;;;13.40;99.90;;;;;;5006513;28;20300;-72
2021/04/28 02:21:09;;;;;;;17.00;3.90;;;13.60;99.90;;;;;;4991806;28;20693;-71
2021/04/28 02:23:42;;;;;;;18.10;4.30;;;13.50;99.90;;;;;;5011587;28;20197;-72
2021/04/28 02:26:08;;;;;;;19.10;3.93;;;13.40;99.90;;;;;;5006312;28;20991;-72
2021/04/28 02:28:35;;;;;;;12.67;3.73;;;13.50;99.90;;;;;;5009591;28;20195;-71
2021/04/28 02:31:01;;;;;;;16.93;4.37;;;13.60;99.90;;;;;;5012033;28;20192;-71
2021/04/28 02:33:28;;;;;;;17.40;4.00;;;13.70;99.90;;;;;;5005396;28;20193;-72
2021/04/28 02:35:58;;;;;;;20.40;3.90;;;13.60;99.90;;;;;;5008110;28;20246;-72
2021/04/28 02:38:52;;;;;;;16.47;4.07;;;13.60;99.90;;;;;;5022186;28;20195;-71
2021/04/28 02:41:21;;;;;;;13.93;4.07;;;13.60;99.90;;;;;;5006302;28;20237;-72
2021/04/28 02:43:49;;;;;;;13.37;3.80;;;13.60;99.90;;;;;;5007668;28;20196;-72
2021/04/28 02:46:27;;;;;;;18.70;4.40;;;13.50;99.90;;;;;;4993366;28;20785;-72
2021/04/28 02:48:59;;;;;;;13.43;3.83;;;13.50;99.90;;;;;;5006988;28;21277;-73
2021/04/28 02:51:30;;;;;;;14.40;4.17;;;13.50;99.90;;;;;;4989706;28;20188;-72
2021/04/28 02:54:00;;;;;;;12.70;3.63;;;13.50;99.90;;;;;;5010234;28;20187;-72
2021/04/28 02:56:31;;;;;;;11.27;3.77;;;13.40;99.90;;;;;;5009214;28;20287;-72
2021/04/28 02:59:00;;;;;;;14.83;3.83;;;13.50;99.90;;;;;;5007326;28;20212;-72
2021/04/28 03:01:28;;;;;;;11.17;3.53;;;13.80;99.90;;;;;;5007643;28;20299;-72
2021/04/28 03:03:56;;;;;;;13.37;3.50;;;14.10;99.90;;;;;;5005012;28;20187;-72
2021/04/28 03:06:23;;;;;;;15.03;3.93;;;14.40;99.90;;;;;;5023415;28;20181;-72
2021/04/28 03:08:50;;;;;;;18.73;4.77;;;14.60;99.90;;;;;;5006162;28;20189;-72
2021/04/28 03:11:17;;;;;;;18.10;3.77;;;14.70;99.90;;;;;;4993080;28;20335;-72
2021/04/28 03:13:43;;;;;;;15.57;3.70;;;14.80;99.90;;;;;;4990169;28;20231;-72
2021/04/28 03:16:11;;;;;;;20.60;4.27;;;14.90;99.90;;;;;;4989427;28;20203;-72
2021/04/28 03:18:38;;;;;;;19.93;4.97;;;14.80;99.90;;;;;;5021821;28;20189;-73
2021/04/28 03:21:08;;;;;;;17.43;4.23;;;14.70;99.90;;;;;;5008094;28;20193;-73
2021/04/28 03:23:35;;;;;;;18.47;3.97;;;14.80;99.90;;;;;;5017057;28;20193;-73
2021/04/28 03:26:02;;;;;;;17.40;3.47;;;14.80;99.90;;;;;;4992772;28;20218;-73
2021/04/28 03:28:28;;;;;;;15.53;3.37;;;14.70;99.90;;;;;;4988083;28;20189;-73
2021/04/28 03:30:55;;;;;;;20.43;3.93;;;14.70;99.90;;;;;;5006787;28;20209;-73
2021/04/28 03:33:21;;;;;;;18.23;4.43;;;14.70;99.90;;;;;;5007928;28;20208;-72
2021/04/28 03:35:47;;;;;;;10.60;4.17;;;14.70;99.90;;;;;;5007287;28;20944;-73
2021/04/28 03:38:13;;;;;;;16.60;4.13;;;14.70;99.90;;;;;;5003932;28;20181;-72
2021/04/28 03:40:40;;;;;;;18.83;4.70;;;14.70;99.90;;;;;;5020506;28;20185;-71
2021/04/28 03:43:06;;;;;;;13.20;3.87;;;14.60;99.90;;;;;;5003049;28;20215;-73
2021/04/28 03:45:32;;;;;;;18.00;3.60;;;14.60;99.90;;;;;;5005945;28;20201;-72
2021/04/28 03:47:59;;;;;;;13.90;3.57;;;14.60;99.90;;;;;;5003619;28;20192;-72
2021/04/28 03:50:25;;;;;;;17.13;3.80;;;14.60;99.90;;;;;;5003520;28;20189;-72
2021/04/28 03:52:51;;;;;;;17.23;3.90;;;14.60;99.90;;;;;;5005835;28;20192;-73
2021/04/28 03:55:18;;;;;;;21.93;4.00;;;14.70;99.90;;;;;;4999487;28;20184;-72
2021/04/28 03:57:44;;;;;;;22.43;4.53;;;14.70;99.90;;;;;;5002660;28;20296;-72
2021/04/28 04:00:11;;;;;;;20.43;4.23;;;14.80;99.90;;;;;;4988804;28;20192;-72
2021/04/28 04:02:38;;;;;;;13.47;3.80;;;14.80;99.90;;;;;;5005926;28;20196;-72
2021/04/28 04:05:06;;;;;;;9.97;3.67;;;14.80;99.90;;;;;;5006846;28;20232;-73
2021/04/28 04:07:32;;;;;;;14.87;4.47;;;14.90;99.90;;;;;;5009563;28;20868;-72
2021/04/28 04:09:59;;;;;;;19.27;4.13;;;14.90;99.90;;;;;;5006038;28;20211;-74
2021/04/28 04:12:25;;;;;;;18.07;3.73;;;14.90;99.90;;;;;;5005530;28;20204;-73
2021/04/28 04:14:51;;;;;;;15.23;4.63;;;14.90;99.90;;;;;;5005401;28;20703;-73
2021/04/28 04:17:17;;;;;;;17.83;4.07;;;14.80;99.90;;;;;;5004416;28;20838;-72
2021/04/28 04:19:44;;;;;;;14.13;4.60;;;14.90;99.90;;;;;;5006006;28;20191;-72
2021/04/28 04:22:10;;;;;;;21.67;4.57;;;15.00;99.90;;;;;;5002983;28;20197;-73
2021/04/28 04:24:37;;;;;;;15.43;4.67;;;15.10;99.90;;;;;;4988502;28;20213;-72
2021/04/28 04:27:03;;;;;;;17.47;4.63;;;15.20;99.90;;;;;;4988218;28;20191;-74
2021/04/28 04:29:29;;;;;;;12.57;3.80;;;15.20;99.90;;;;;;5007635;28;20338;-73
2021/04/28 04:31:56;;;;;;;21.30;4.13;;;15.20;99.90;;;;;;5005313;28;21097;-73
2021/04/28 04:34:22;;;;;;;15.53;3.80;;;15.20;99.90;;;;;;5020579;28;20223;-73
2021/04/28 04:36:49;;;;;;;12.47;3.77;;;15.40;99.90;;;;;;5022342;28;20704;-73
2021/04/28 04:39:16;;;;;;;19.53;3.97;;;15.50;99.90;;;;;;4988818;28;20296;-73
2021/04/28 04:41:42;;;;;;;13.60;3.83;;;15.60;99.90;;;;;;5003717;28;20555;-72
2021/04/28 04:44:08;;;;;;;15.03;3.47;;;15.60;99.90;;;;;;5005795;28;20229;-72
2021/04/28 04:46:34;;;;;;;13.57;3.63;;;15.60;99.90;;;;;;5006073;28;20243;-75
2021/04/28 04:49:01;;;;;;;17.07;4.63;;;15.70;99.90;;;;;;5008163;28;20187;-74
2021/04/28 04:51:27;;;;;;;21.83;3.70;;;15.90;99.90;;;;;;5005982;28;20180;-75
2021/04/28 04:53:54;;;;;;;20.97;4.43;;;16.10;99.90;;;;;;5020607;28;20693;-74
2021/04/28 04:57:11;;;;;;;15.60;4.07;;;16.00;99.90;;;;;;5003646;28;20192;-75
2021/04/28 04:59:37;;;;;;;15.17;4.20;;;15.90;99.90;;;;;;4990507;28;20193;-74
2021/04/28 05:02:07;;;;;;;15.17;4.17;;;15.90;99.90;;;;;;4988752;28;20188;-74
2021/04/28 05:04:34;;;;;;;17.33;4.07;;;16.10;99.90;;;;;;5003896;28;20205;-74
2021/04/28 05:07:00;;;;;;;16.90;4.30;;;16.20;99.90;;;;;;5005660;28;20179;-72
2021/04/28 05:09:27;;;;;;;16.37;4.20;;;16.20;99.90;;;;;;5002674;28;20193;-74
2021/04/28 05:11:56;;;;;;;13.67;4.17;;;16.40;99.90;;;;;;4987714;28;20324;-72
2021/04/28 05:14:23;;;;;;;15.33;4.30;;;16.40;99.90;;;;;;5003006;28;20189;-72
2021/04/28 05:16:51;;;;;;;14.03;4.40;;;16.50;99.90;;;;;;5003656;28;20193;-72
2021/04/28 05:19:17;;;;;;;18.90;4.13;;;16.60;99.90;;;;;;5021219;28;20187;-72
2021/04/28 05:21:43;;;;;;;18.70;4.40;;;16.60;99.90;;;;;;5018976;28;20227;-71
2021/04/28 05:24:10;;;;;;;20.27;4.47;;;16.60;99.90;;;;;;5000287;28;20247;-72
2021/04/28 05:26:36;;;;;;;11.63;4.10;;;16.70;99.90;;;;;;5018587;28;20187;-72
2021/04/28 05:29:04;;;;;;;15.33;4.33;;;16.70;99.90;;;;;;5003577;28;20188;-72
2021/04/28 05:31:31;;;;;;;12.67;4.37;;;16.80;99.90;;;;;;5004825;28;20712;-72
2021/04/28 05:33:58;;;;;;;13.40;3.83;;;16.80;99.90;;;;;;4991838;28;20970;-72
2021/04/28 05:36:25;;;;;;;12.80;4.60;;;16.80;99.90;;;;;;5020278;28;20187;-71
2021/04/28 05:38:55;;;;;;;8.80;3.50;;;17.00;99.90;;;;;;5014970;28;20212;-73
2021/04/28 05:41:22;;;;;;;14.23;4.10;;;17.10;99.90;;;;;;5008758;28;20220;-73
2021/04/28 05:43:48;;;;;;;18.03;4.50;;;17.10;99.90;;;;;;5011945;28;20266;-73
2021/04/28 05:46:14;;;;;;;17.70;4.33;;;17.20;99.90;;;;;;5008027;28;20999;-72
2021/04/28 05:48:41;;;;;;;20.03;4.33;;;17.20;99.90;;;;;;5010781;28;20180;-73
2021/04/28 05:51:08;;;;;;;13.37;4.67;;;17.30;99.90;;;;;;4994308;28;20227;-72
2021/04/28 05:53:34;;;;;;;14.80;4.43;;;17.40;99.90;;;;;;5008234;28;21017;-72
2021/04/28 05:56:07;;;;;;;13.23;4.00;;;17.60;99.90;;;;;;5006096;28;20188;-71
2021/04/28 05:58:36;;;;;;;14.50;4.03;;;17.90;99.90;;;;;;5009092;28;20187;-74
2021/04/28 06:01:09;;;;;;;17.13;4.60;;;17.90;99.90;;;;;;5017902;28;20204;-72
2021/04/28 06:04:43;;;;;;;15.87;4.30;;;18.00;99.90;;;;;;4961120;28;20234;-74
2021/04/28 06:07:10;;;;;;;14.07;4.30;;;18.40;99.90;;;;;;4966750;28;20241;-73
2021/04/28 06:09:36;;;;;;;12.03;4.40;;;18.30;99.90;;;;;;4954065;28;20237;-72
2021/04/28 06:12:05;;;;;;;10.67;4.20;;;18.50;99.90;;;;;;4968694;28;20194;-72
2021/04/28 06:14:33;;;;;;;17.23;4.67;;;18.70;99.90;;;;;;4967855;28;20558;-72
2021/04/28 06:17:01;;;;;;;15.80;5.23;;;18.80;99.90;;;;;;4966670;28;20229;-72
2021/04/28 06:19:27;;;;;;;15.57;4.40;;;18.80;99.90;;;;;;4969909;28;20206;-72
2021/04/28 06:21:53;;;;;;;15.80;4.57;;;19.00;99.90;;;;;;4955938;28;20198;-72
2021/04/28 06:24:20;;;;;;;10.83;4.10;;;19.10;99.90;;;;;;5008790;28;20208;-72
2021/04/28 06:26:46;;;;;;;12.30;4.10;;;19.00;99.90;;;;;;5020240;28;20276;-72
2021/04/28 06:29:13;;;;;;;12.53;3.80;;;18.90;99.90;;;;;;5006394;28;20229;-71
2021/04/28 06:31:39;;;;;;;7.77;3.90;;;19.20;99.90;;;;;;5011667;28;20185;-72
2021/04/28 06:34:06;;;;;;;17.30;4.53;;;19.30;99.90;;;;;;4988929;28;20906;-71
2021/04/28 06:36:40;;;;;;;15.00;4.07;;;19.20;99.90;;;;;;5007360;28;20259;-72
2021/04/28 06:39:07;;;;;;;11.00;4.20;;;19.30;99.90;;;;;;5009622;28;20219;-72
2021/04/28 06:41:34;;;;;;;16.83;4.20;;;19.50;99.90;;;;;;5008401;28;20200;-72
2021/04/28 06:44:01;;;;;;;15.63;4.07;;;19.40;99.90;;;;;;4991209;28;20211;-72
2021/04/28 06:46:30;;;;;;;10.90;4.00;;;19.70;99.90;;;;;;5006361;28;20192;-72
2021/04/28 06:48:59;;;;;;;19.93;4.50;;;19.80;99.90;;;;;;5024722;28;20196;-72
2021/04/28 06:51:29;;;;;;;13.50;4.67;;;19.90;99.90;;;;;;4998436;28;20207;-72
2021/04/28 06:54:12;;;;;;;18.10;4.43;;;20.00;99.90;;;;;;5016805;28;20296;-72
2021/04/28 06:56:43;;;;;;;13.80;4.70;;;20.00;99.90;;;;;;5006405;28;20189;-72
2021/04/28 06:59:18;;;;;;;13.43;4.37;;;20.00;99.90;;;;;;5006454;28;20196;-72
2021/04/28 07:01:48;;;;;;;16.47;4.53;;;20.00;99.90;;;;;;5004185;28;20197;-71
2021/04/28 07:04:15;;;;;;;9.97;4.33;;;20.20;99.90;;;;;;5004882;28;20212;-71
2021/04/28 07:06:41;;;;;;;17.47;4.57;;;20.30;99.90;;;;;;4999275;28;20251;-71
2021/04/28 07:09:08;;;;;;;16.83;4.90;;;20.40;99.90;;;;;;5004179;28;20235;-72
2021/04/28 07:11:35;;;;;;;12.37;4.33;;;20.60;99.90;;;;;;5016048;28;20189;-72
2021/04/28 07:14:51;;;;;;;14.43;4.33;;;20.70;99.90;;;;;;5017023;28;20602;-71
2021/04/28 07:17:19;;;;;;;16.10;4.90;;;20.90;99.90;;;;;;5011564;28;20198;-71
2021/04/28 07:19:46;;;;;;;13.13;4.43;;;20.90;99.90;;;;;;5004609;28;20198;-71
2021/04/28 07:22:13;;;;;;;12.33;4.10;;;20.90;99.90;;;;;;4988864;28;20308;-71
2021/04/28 07:24:45;;;;;;;19.00;4.33;;;21.00;99.90;;;;;;5009710;28;20228;-71
2021/04/28 07:27:12;;;;;;;12.03;4.37;;;21.10;99.90;;;;;;4999458;28;20184;-71
2021/04/28 07:29:40;;;;;;;15.83;4.80;;;21.10;99.90;;;;;;5006047;28;20189;-72
2021/04/28 07:32:06;;;;;;;14.70;4.30;;;21.10;99.90;;;;;;5000700;28;20188;-71
2021/04/28 07:34:33;;;;;;;19.47;4.63;;;21.10;99.90;;;;;;5006032;28;20209;-71
2021/04/28 07:37:00;;;;;;;19.83;4.73;;;21.20;99.90;;;;;;5001963;28;20263;-72
2021/04/28 07:39:28;;;;;;;14.73;4.30;;;21.20;99.90;;;;;;4997127;28;20760;-71
2021/04/28 07:41:56;;;;;;;14.20;4.67;;;21.30;99.90;;;;;;4988212;28;20184;-72
2021/04/28 07:44:25;;;;;;;19.43;4.70;;;21.30;99.90;;;;;;4984170;28;20686;-72
2021/04/28 07:46:53;;;;;;;19.00;4.50;;;21.50;99.90;;;;;;5003190;28;20266;-72
2021/04/28 07:49:19;;;;;;;12.17;5.03;;;21.50;99.90;;;;;;5000045;28;20259;-71
2021/04/28 07:51:46;;;;;;;15.97;5.40;;;21.60;99.90;;;;;;5018151;28;20188;-71
2021/04/28 07:54:12;;;;;;;13.70;4.73;;;21.60;99.90;;;;;;4998638;28;20185;-72
2021/04/28 07:56:40;;;;;;;13.63;4.57;;;21.70;99.90;;;;;;5003792;28;20787;-72
2021/04/28 07:59:06;;;;;;;14.30;4.80;;;21.60;99.90;;;;;;4987953;28;20534;-73
2021/04/28 08:01:33;;;;;;;9.83;4.53;;;21.60;99.90;;;;;;5002664;28;20189;-72
2021/04/28 08:04:01;;;;;;;17.83;4.90;;;21.60;99.90;;;;;;4987287;28;20185;-72
2021/04/28 08:06:28;;;;;;;19.20;4.57;;;21.60;99.90;;;;;;5004013;28;20239;-72
2021/04/28 08:08:54;;;;;;;15.03;4.80;;;21.70;99.90;;;;;;5000540;28;20201;-73
2021/04/28 08:11:21;;;;;;;14.43;4.43;;;21.90;99.90;;;;;;5000800;28;20191;-72
2021/04/28 08:13:47;;;;;;;10.70;4.43;;;22.00;99.90;;;;;;5002049;28;20201;-72
2021/04/28 08:16:19;;;;;;;20.33;4.70;;;22.00;99.90;;;;;;5001563;28;20192;-73
2021/04/28 08:18:47;;;;;;;11.60;4.63;;;22.20;99.90;;;;;;5003465;28;20220;-74
2021/04/28 08:21:17;;;;;;;12.20;4.03;;;22.10;99.90;;;;;;4986298;28;20192;-74
2021/04/28 08:23:43;;;;;;;12.47;4.37;;;22.30;99.90;;;;;;4991722;28;20274;-73
2021/04/28 08:26:13;;;;;;;14.40;4.30;;;22.70;99.90;;;;;;4998494;28;20233;-74
2021/04/28 08:28:44;;;;;;;15.07;4.63;;;22.70;99.90;;;;;;5005937;28;20283;-73
2021/04/28 08:31:15;;;;;;;13.47;4.03;;;23.00;99.90;;;;;;4997852;28;20228;-74
2021/04/28 08:33:42;;;;;;;22.43;4.73;;;23.00;99.90;;;;;;5017823;28;20323;-73
2021/04/28 08:36:11;;;;;;;11.30;4.30;;;23.10;99.90;;;;;;5002944;28;20212;-73
2021/04/28 08:38:39;;;;;;;15.23;4.30;;;23.30;99.90;;;;;;5002314;28;20197;-73
2021/04/28 08:41:12;;;;;;;14.33;4.40;;;23.50;99.90;;;;;;4988217;28;20197;-72
2021/04/28 08:43:40;;;;;;;17.40;4.60;;;23.60;99.90;;;;;;5002342;28;20570;-73
2021/04/28 08:46:09;;;;;;;14.93;4.87;;;23.60;99.90;;;;;;5001858;28;20216;-73
2021/04/28 08:48:35;;;;;;;17.70;4.83;;;23.60;99.90;;;;;;5007574;28;20189;-73
2021/04/28 08:51:10;;;;;;;24.67;4.93;;;23.60;99.90;;;;;;4982029;28;20269;-74
2021/04/28 08:53:38;;;;;;;18.40;5.00;;;23.50;99.90;;;;;;5000423;28;20241;-73
2021/04/28 08:56:09;;;;;;;18.53;4.87;;;23.50;99.90;;;;;;5014725;28;20254;-73
2021/04/28 08:58:37;;;;;;;19.43;5.43;;;23.50;99.90;;;;;;5015167;28;20197;-74
2021/04/28 09:01:05;;;;;;;12.03;4.83;;;23.80;99.90;;;;;;4985366;28;20669;-73
2021/04/28 09:03:43;;;;;;;13.80;4.30;;;23.80;99.90;;;;;;4999074;28;20208;-72
2021/04/28 09:06:30;;;;;;;10.00;4.60;;;23.60;99.90;;;;;;4986226;28;20231;-72
2021/04/28 09:09:12;;;;;;;10.40;4.73;;;23.60;99.90;;;;;;4986219;28;20227;-72
2021/04/28 09:11:51;;;;;;;16.50;4.83;;;23.60;99.90;;;;;;4997919;28;20758;-72
2021/04/28 09:14:30;;;;;;;17.60;4.90;;;23.80;99.90;;;;;;4989644;28;20565;-74
2021/04/28 09:17:07;;;;;;;11.33;4.70;;;24.10;99.90;;;;;;4996106;28;20228;-75
2021/04/28 09:19:43;;;;;;;12.53;5.00;;;24.00;99.90;;;;;;5001452;28;20200;-74
2021/04/28 09:22:15;;;;;;;14.18;5.38;;;24.00;99.90;;;;;;5006506;28;20321;-74
2021/04/28 09:24:55;;;;;;;15.63;4.87;;;24.10;99.90;;;;;;4999280;28;20220;-74
2021/04/28 09:27:35;;;;;;;11.67;4.37;;;23.90;99.90;;;;;;5009001;28;20184;-74
2021/04/28 09:30:23;;;;;;;16.70;4.40;;;24.00;99.90;;;;;;4984023;28;20185;-74
2021/04/28 09:33:01;;;;;;;21.23;4.57;;;23.90;99.90;;;;;;5000607;28;20200;-72
2021/04/28 09:35:27;;;;;;;9.63;4.17;;;24.20;99.90;;;;;;5003694;28;20274;-73
2021/04/28 09:38:01;;;;;;;16.87;4.67;;;24.00;99.90;;;;;;5020002;28;20593;-72
2021/04/28 09:40:44;;;;;;;9.57;4.53;;;23.90;99.90;;;;;;5005167;28;20189;-73
2021/04/28 09:43:13;;;;;;;18.53;4.57;;;23.90;99.90;;;;;;4994581;28;20201;-72
2021/04/28 09:45:45;;;;;;;13.13;4.60;;;23.70;99.90;;;;;;5003823;28;20229;-73
2021/04/28 09:48:22;;;;;;;9.13;4.27;;;23.90;99.90;;;;;;4993604;28;20797;-75
2021/04/28 09:51:02;;;;;;;9.83;4.10;;;23.90;99.90;;;;;;4996725;28;20208;-75
2021/04/28 09:53:29;;;;;;;14.93;4.88;;;24.10;99.90;;;;;;4987826;28;20185;-75
2021/04/28 09:55:56;;;;;;;16.17;4.47;;;24.30;99.90;;;;;;4986939;28;20192;-75
2021/04/28 09:58:53;;;;;;;15.07;4.72;;;24.00;99.90;;;;;;5001417;28;20767;-73
2021/04/28 10:01:41;;;;;;;10.73;4.90;;;24.00;99.90;;;;;;4999705;28;20201;-75
2021/04/28 10:04:10;;;;;;;12.97;4.37;;;23.90;99.90;;;;;;4999258;28;20200;-75
2021/04/28 10:06:49;;;;;;;13.17;4.17;;;24.30;99.90;;;;;;4997085;28;20258;-74
2021/04/28 10:09:36;;;;;;;13.43;4.57;;;24.30;99.90;;;;;;4998936;28;20308;-74
2021/04/28 10:12:06;;;;;;;11.75;4.00;;;24.60;99.90;;;;;;5000333;28;20359;-74
2021/04/28 10:14:36;;;;;;;12.75;4.53;;;24.50;99.90;;;;;;5010125;28;20185;-75
2021/04/28 10:17:06;;;;;;;13.88;4.18;;;24.40;99.90;;;;;;4997443;28;20196;-74
2021/04/28 10:19:34;;;;;;;15.30;4.55;;;24.90;99.90;;;;;;5000359;28;20729;-74
2021/04/28 10:22:22;;;;;;;15.32;4.32;;;24.90;99.90;;;;;;5000931;28;20189;-74
2021/04/28 10:24:52;;;;;;;11.23;4.13;;;25.10;99.90;;;;;;4998737;28;20220;-75
2021/04/28 10:27:20;;;;;;;14.77;4.43;;;25.30;99.90;;;;;;5020179;28;20201;-75
2021/04/28 10:29:52;;;;;;;19.60;4.25;;;25.40;99.90;;;;;;5004466;28;20196;-74
2021/04/28 10:32:22;;;;;;;12.98;4.55;;;25.40;99.90;;;;;;5003682;28;20216;-74
2021/04/28 10:35:10;;;;;;;14.30;4.55;;;25.60;99.90;;;;;;5021010;28;20213;-74
2021/04/28 10:37:41;;;;;;;15.60;4.18;;;25.90;99.90;;;;;;5000578;28;20193;-73
2021/04/28 10:40:13;;;;;;;12.20;4.13;;;25.80;99.90;;;;;;5008859;28;20181;-74
2021/04/28 10:42:42;;;;;;;11.23;3.88;;;25.90;99.90;;;;;;4992245;28;20192;-75
2021/04/28 10:45:24;;;;;;;15.48;4.40;;;25.90;99.90;;;;;;5001769;28;20303;-75
2021/04/28 10:47:59;;;;;;;12.95;4.10;;;25.60;99.90;;;;;;4992273;28;20347;-74
2021/04/28 10:50:38;;;;;;;12.65;4.15;;;25.50;99.90;;;;;;4991281;28;20264;-74
2021/04/28 10:53:26;;;;;;;11.18;4.45;;;25.50;99.90;;;;;;5000405;28;20325;-74
2021/04/28 10:56:12;;;;;;;9.98;4.22;;;25.70;99.90;;;;;;5001129;28;20853;-74
2021/04/28 10:58:42;;;;;;;15.77;4.57;;;25.70;99.90;;;;;;4982199;28;20189;-75
2021/04/28 11:01:30;;;;;;;12.90;3.70;;;25.60;99.90;;;;;;5019582;28;21129;-74
2021/04/28 11:04:01;;;;;;;11.45;4.30;;;25.80;99.90;;;;;;5003432;28;20193;-74
2021/04/28 11:06:28;;;;;;;9.93;3.72;;;25.80;99.90;;;;;;4989683;28;20219;-74
2021/04/28 11:09:00;;;;;;;13.55;3.95;;;25.70;99.90;;;;;;5005188;28;20265;-74
2021/04/28 11:11:33;;;;;;;13.85;4.38;;;25.80;99.90;;;;;;5003501;28;20578;-74
2021/04/28 11:14:09;;;;;;;9.10;4.05;;;25.60;99.90;;;;;;5005763;28;20201;-74
2021/04/28 11:17:00;;;;;;;11.68;4.18;;;25.50;99.90;;;;;;5015707;28;20188;-75
2021/04/28 11:19:38;;;;;;;11.63;4.15;;;25.50;99.90;;;;;;5003108;28;20312;-72
2021/04/28 11:22:07;;;;;;;18.75;4.18;;;25.40;99.90;;;;;;4990999;28;20187;-74
2021/04/28 11:25:03;;;;;;;11.93;3.92;;;25.30;99.90;;;;;;5002751;28;20581;-75
2021/04/28 11:27:55;;;;;;;13.48;4.07;;;25.30;99.90;;;;;;5003951;28;20787;-73
2021/04/28 11:30:51;;;;;;;10.48;3.60;;;25.60;99.90;;;;;;5011397;28;20199;-73
2021/04/28 11:33:30;;;;;;;8.30;3.78;;;25.80;99.90;;;;;;5000024;28;20197;-74
2021/04/28 11:35:56;;;;;;;13.55;4.30;;;25.90;99.90;;;;;;5000349;28;20201;-74
2021/04/28 11:38:32;;;;;;;14.95;3.75;;;26.00;99.90;;;;;;4999048;28;20193;-71
2021/04/28 11:41:01;;;;;;;12.70;3.70;;;25.70;99.90;;;;;;4999059;28;20279;-71
2021/04/28 11:43:34;;;;;;;15.13;3.83;;;25.80;99.90;;;;;;4998851;28;20188;-73
2021/04/28 11:46:19;;;;;;;9.20;3.63;;;26.00;99.90;;;;;;5000118;28;20220;-73
2021/04/28 11:48:55;;;;;;;15.10;4.05;;;26.20;99.90;;;;;;5000154;28;20612;-73
2021/04/28 11:51:32;;;;;;;11.43;3.95;;;26.00;99.90;;;;;;5015137;28;20295;-73
2021/04/28 11:54:09;;;;;;;14.73;4.13;;;26.00;99.90;;;;;;5009181;28;20192;-73
2021/04/28 11:56:47;;;;;;;10.50;3.85;;;26.00;99.90;;;;;;5016174;28;20272;-73
2021/04/28 11:59:33;;;;;;;10.18;3.78;;;25.90;99.90;;;;;;4999971;28;20220;-75
2021/04/28 12:02:05;;;;;;;14.65;3.97;;;25.90;99.90;;;;;;5000907;28;20182;-73
2021/04/28 12:04:34;;;;;;;9.90;4.05;;;25.80;99.90;;;;;;5001159;28;20694;-73
2021/04/28 12:07:03;;;;;;;8.23;3.25;;;25.80;99.90;;;;;;5005386;28;20646;-73
2021/04/28 12:09:44;;;;;;;11.02;3.83;;;25.90;99.90;;;;;;5000133;28;20220;-71
2021/04/28 12:12:24;;;;;;;12.90;3.90;;;25.60;99.90;;;;;;5007450;28;20285;-72
2021/04/28 12:15:06;;;;;;;12.18;3.50;;;25.70;99.90;;;;;;5001543;28;20189;-70
2021/04/28 12:17:44;;;;;;;15.95;3.42;;;25.90;99.90;;;;;;5013157;28;20204;-71
2021/04/28 12:20:18;;;;;;;10.85;2.85;;;26.10;99.90;;;;;;5000705;28;20189;-71
2021/04/28 12:22:46;;;;;;;6.97;2.80;;;26.10;99.90;;;;;;5005243;28;20542;-70
2021/04/28 12:25:18;;;;;;;8.82;3.47;;;26.20;99.90;;;;;;5003546;28;20266;-71
2021/04/28 12:27:49;;;;;;;8.43;3.15;;;25.90;99.90;;;;;;4989600;28;20185;-71
2021/04/28 12:30:23;;;;;;;6.95;3.30;;;26.10;99.90;;;;;;5001450;28;20188;-71
2021/04/28 12:32:56;;;;;;;11.55;3.28;;;25.90;99.90;;;;;;5016526;28;20192;-71
2021/04/28 12:35:23;;;;;;;9.80;3.30;;;25.60;99.90;;;;;;4985811;28;20216;-71
2021/04/28 12:38:16;;;;;;;11.88;3.80;;;26.00;99.90;;;;;;5005306;28;20248;-71
2021/04/28 12:40:58;;;;;;;8.80;3.20;;;26.30;99.90;;;;;;5022472;28;20192;-74
2021/04/28 12:43:36;;;;;;;10.95;3.95;;;26.20;99.90;;;;;;5014859;28;20542;-74
2021/04/28 12:46:13;;;;;;;10.77;3.20;;;26.30;99.90;;;;;;5004153;28;20230;-74
2021/04/28 12:49:02;;;;;;;12.25;3.88;;;26.30;99.90;;;;;;5001572;28;20192;-74
2021/04/28 12:51:33;;;;;;;15.18;3.67;;;26.20;99.90;;;;;;5002225;28;20601;-71
2021/04/28 12:53:59;;;;;;;17.88;3.58;;;26.20;99.90;;;;;;5018210;28;20193;-71
2021/04/28 12:56:46;;;;;;;7.75;3.05;;;26.30;99.90;;;;;;5003458;28;20479;-71
2021/04/28 12:59:23;;;;;;;10.25;3.72;;;26.40;99.90;;;;;;5001338;28;20299;-74